createdAt,value
2019-01-05T00:03:16.159Z,5.60
2019-01-05T00:09:39.375Z,5.60
2019-01-05T00:16:01.116Z,5.60
2019-01-05T00:22:43.915Z,5.60
2019-01-05T00:29:13.262Z,5.70
2019-01-05T00:35:44.277Z,5.80
2019-01-05T00:42:06.632Z,5.80
2019-01-05T00:48:37.298Z,5.80
2019-01-05T00:55:13.688Z,5.90
2019-01-05T01:01:39.888Z,5.90
2019-01-05T01:08:01.782Z,6.00
2019-01-05T01:14:28.027Z,6.00
2019-01-05T01:20:57.612Z,6.00
2019-01-05T01:27:26.962Z,6.00
2019-01-05T01:33:49.200Z,6.10
2019-01-05T01:40:29.904Z,6.10
2019-01-05T01:46:53.740Z,6.10
2019-01-05T01:53:16.998Z,6.10
2019-01-05T01:59:53.292Z,6.20
2019-01-05T02:06:19.415Z,6.20
2019-01-05T02:12:47.346Z,6.20
2019-01-05T02:19:39.355Z,6.20
2019-01-05T02:26:57.720Z,6.30
2019-01-05T02:34:11.060Z,6.20
2019-01-05T02:41:08.958Z,6.20
2019-01-05T02:48:33.965Z,6.20
2019-01-05T02:55:38.773Z,6.10
2019-01-05T03:02:47.431Z,6.10
2019-01-05T03:09:59.277Z,6.10
2019-01-05T03:16:57.941Z,6.10
2019-01-05T03:23:49.937Z,6.10
2019-01-05T03:30:51.449Z,6.10
2019-01-05T03:37:41.791Z,6.00
2019-01-05T03:44:37.409Z,6.00
2019-01-05T03:51:50.966Z,6.10
2019-01-05T03:58:42.639Z,6.10
2019-01-05T04:05:25.394Z,6.10
2019-01-05T04:12:30.043Z,6.10
2019-01-05T04:19:21.385Z,6.10
2019-01-05T04:26:06.632Z,6.10
2019-01-05T04:33:27.069Z,6.10
2019-01-05T04:40:29.275Z,6.10
2019-01-05T04:47:39.728Z,6.10
2019-01-05T04:54:52.604Z,6.00
2019-01-05T05:01:48.098Z,6.10
2019-01-05T05:08:46.852Z,6.10
2019-01-05T05:16:04.646Z,6.10
2019-01-05T05:23:11.527Z,6.10
2019-01-05T05:30:41.716Z,6.10
2019-01-05T05:37:42.917Z,6.10
2019-01-05T05:44:59.356Z,6.00
2019-01-05T05:52:01.693Z,6.10
2019-01-05T05:58:58.264Z,6.20
2019-01-05T06:05:57.906Z,6.20
2019-01-05T06:13:07.892Z,6.40
2019-01-05T06:20:16.257Z,6.40
2019-01-05T06:27:17.766Z,6.40
2019-01-05T06:34:35.489Z,6.40
2019-01-05T06:41:48.577Z,6.40
2019-01-05T06:49:09.367Z,6.40
2019-01-05T06:56:14.057Z,6.40
2019-01-05T07:03:13.655Z,6.50
2019-01-05T07:10:25.429Z,6.50
2019-01-05T07:17:41.123Z,6.50
2019-01-05T07:25:13.722Z,6.50
2019-01-05T07:32:23.848Z,6.50
2019-01-05T07:39:46.014Z,6.50
2019-01-05T07:47:02.080Z,6.50
2019-01-05T07:54:17.183Z,6.50
2019-01-05T08:01:27.510Z,6.50
2019-01-05T08:08:58.708Z,6.50
2019-01-05T08:16:07.439Z,6.50
2019-01-05T08:23:24.359Z,6.50
2019-01-05T08:30:55.708Z,6.50
2019-01-05T08:38:14.362Z,6.50
2019-01-05T08:45:11.316Z,6.50
2019-01-05T08:52:30.720Z,6.50
2019-01-05T08:59:45.601Z,6.50
2019-01-05T09:06:46.264Z,6.50
2019-01-05T09:13:41.164Z,6.50
2019-01-05T09:20:31.176Z,6.50
2019-01-05T09:27:32.616Z,6.50
2019-01-05T09:34:38.318Z,6.60
2019-01-05T09:41:43.079Z,6.60
2019-01-05T09:48:58.787Z,6.60
2019-01-05T09:55:48.508Z,6.70
2019-01-05T10:03:01.845Z,6.70
2019-01-05T10:10:00.504Z,6.70
2019-01-05T10:17:15.230Z,6.70
2019-01-05T10:24:29.673Z,6.70
2019-01-05T10:31:33.731Z,6.70
2019-01-05T10:38:24.634Z,6.70
2019-01-05T10:45:42.649Z,6.80
2019-01-05T10:52:32.271Z,6.70
2019-01-05T10:59:49.236Z,6.70
2019-01-05T11:06:54.237Z,6.70
2019-01-05T11:14:15.027Z,6.70
2019-01-05T11:21:15.021Z,6.70
2019-01-05T11:28:28.141Z,6.60
2019-01-05T11:35:32.562Z,6.70
2019-01-05T11:42:37.335Z,6.60
2019-01-05T11:49:43.100Z,6.60
2019-01-05T11:56:51.888Z,6.60
2019-01-05T12:03:58.734Z,6.70
2019-01-05T12:11:18.179Z,6.60
2019-01-05T12:18:40.076Z,6.60
2019-01-05T12:25:50.250Z,6.60
2019-01-05T12:33:05.220Z,6.60
2019-01-05T12:40:10.961Z,6.70
2019-01-05T12:47:39.966Z,6.50
2019-01-05T12:54:43.489Z,6.60
2019-01-05T13:02:05.096Z,6.60
2019-01-05T13:09:12.375Z,6.50
2019-01-05T13:16:17.936Z,6.70
2019-01-05T13:23:15.902Z,6.50
2019-01-05T13:30:14.394Z,6.50
2019-01-05T13:37:23.944Z,6.40
2019-01-05T13:44:39.019Z,6.40
2019-01-05T13:51:27.518Z,6.20
2019-01-05T13:57:53.803Z,6.40
2019-01-05T14:04:23.065Z,6.30
2019-01-05T14:10:52.084Z,6.20
2019-01-05T14:17:15.848Z,6.30
2019-01-05T14:23:39.557Z,6.60
2019-01-05T14:30:02.799Z,7.10
2019-01-05T14:36:26.045Z,7.90
2019-01-05T14:43:13.006Z,7.40
2019-01-05T14:49:35.455Z,6.30
2019-01-05T14:55:52.146Z,6.20
2019-01-05T15:02:14.178Z,6.20
2019-01-05T15:08:36.191Z,6.20
2019-01-05T15:15:03.132Z,6.40
2019-01-05T15:21:36.206Z,6.10
2019-01-05T15:28:14.699Z,6.00
2019-01-05T15:34:42.192Z,6.10
2019-01-05T15:41:08.368Z,6.20
2019-01-05T15:47:32.677Z,6.70
2019-01-05T15:53:53.064Z,6.30
2019-01-05T16:00:11.520Z,6.00
2019-01-05T16:06:33.549Z,6.00
2019-01-05T16:12:55.698Z,6.10
2019-01-05T16:19:27.806Z,5.90
2019-01-05T16:26:03.220Z,5.90
2019-01-05T16:32:26.661Z,5.90
2019-01-05T16:39:05.357Z,5.90
2019-01-05T16:45:31.676Z,5.90
2019-01-05T16:51:59.634Z,5.80
2019-01-05T16:58:21.688Z,5.80
2019-01-05T17:04:50.766Z,5.70
2019-01-05T17:11:22.808Z,5.60
2019-01-05T17:17:53.889Z,5.60
2019-01-05T17:24:15.575Z,5.60
2019-01-05T17:30:41.840Z,5.60
2019-01-05T17:37:10.961Z,5.60
2019-01-05T17:43:30.483Z,5.50
2019-01-05T17:49:52.255Z,5.50
2019-01-05T17:56:14.165Z,5.50
2019-01-05T18:02:43.336Z,5.50
2019-01-05T18:09:04.991Z,5.60
2019-01-05T18:15:28.387Z,5.60
2019-01-05T18:22:03.606Z,5.60
2019-01-05T18:28:41.835Z,5.60
2019-01-05T18:35:19.775Z,5.60
2019-01-05T18:41:41.958Z,5.50
2019-01-05T18:48:11.436Z,5.50
2019-01-05T18:54:33.253Z,5.50
2019-01-05T19:00:55.115Z,5.50
2019-01-05T19:07:33.674Z,5.50
2019-01-05T19:13:57.083Z,5.50
2019-01-05T19:20:18.912Z,5.50
2019-01-05T19:26:40.539Z,5.40
2019-01-05T19:33:11.713Z,5.50
2019-01-05T19:39:33.900Z,5.50
2019-01-05T19:46:05.981Z,5.40
2019-01-05T19:52:31.952Z,5.40
2019-01-05T19:58:53.804Z,5.40
2019-01-05T20:05:13.822Z,5.40
2019-01-05T20:11:35.624Z,5.40
2019-01-05T20:17:57.538Z,5.30
2019-01-05T20:24:21.397Z,5.30
2019-01-05T20:30:42.404Z,5.30
2019-01-05T20:37:13.686Z,5.30
2019-01-05T20:43:36.973Z,5.30
2019-01-05T20:49:58.561Z,5.20
2019-01-05T20:56:37.734Z,5.20
2019-01-05T21:03:08.235Z,5.20
2019-01-05T21:09:31.668Z,5.10
2019-01-05T21:15:53.354Z,5.70
2019-01-05T21:22:20.290Z,5.20
2019-01-05T21:28:42.217Z,5.10
2019-01-05T21:35:08.213Z,5.10
2019-01-05T21:41:29.868Z,5.10
2019-01-05T21:47:51.761Z,5.00
2019-01-05T21:54:22.289Z,5.00
2019-01-05T22:00:44.263Z,5.00
2019-01-05T22:07:13.531Z,5.00
2019-01-05T22:13:35.989Z,5.00
2019-01-05T22:20:08.237Z,5.00
2019-01-05T22:26:40.849Z,5.00
2019-01-05T22:33:02.640Z,5.00
2019-01-05T22:39:35.410Z,5.10
2019-01-05T22:45:58.630Z,5.10
2019-01-05T22:52:20.318Z,5.10
2019-01-05T22:58:46.418Z,5.10
2019-01-05T23:05:08.253Z,5.10
2019-01-05T23:11:30.138Z,5.10
2019-01-05T23:17:51.696Z,5.10
2019-01-05T23:24:13.396Z,5.10
2019-01-05T23:30:45.512Z,5.10
2019-01-05T23:37:21.819Z,5.10
2019-01-05T23:43:51.128Z,5.10
2019-01-05T23:50:12.743Z,5.10
2019-01-05T23:56:34.540Z,5.10
